sensor_id;sensor_type;location;lat;lon;timestamp;pressure;altitude;pressure_sealevel;temperature;humidity
16821;BME280;8527;49.740;6.604;2023-05-01T00:02:01;99765.75;;;11.59;77.04
16821;BME280;8527;49.740;6.604;2023-05-01T00:07:03;99757.03;;;11.42;76.71
16821;BME280;8527;49.740;6.604;2023-05-01T00:12:06;99749.53;;;11.14;78.75
16821;BME280;8527;49.740;6.604;2023-05-01T00:17:04;99750.69;;;11.20;79.41
16821;BME280;8527;49.740;6.604;2023-05-01T00:22:03;99741.22;;;11.17;78.89
16821;BME280;8527;49.740;6.604;2023-05-01T00:27:01;99727.03;;;11.02;79.68
16821;BME280;8527;49.740;6.604;2023-05-01T00:32:03;99726.81;;;11.11;79.10
16821;BME280;8527;49.740;6.604;2023-05-01T00:37:02;99727.72;;;10.95;80.08
16821;BME280;8527;49.740;6.604;2023-05-01T00:42:01;99724.38;;;11.02;80.17
16821;BME280;8527;49.740;6.604;2023-05-01T00:46:59;99716.44;;;10.93;80.95
16821;BME280;8527;49.740;6.604;2023-05-01T00:52:02;99711.19;;;10.77;80.79
16821;BME280;8527;49.740;6.604;2023-05-01T00:57:00;99703.72;;;10.80;80.60
16821;BME280;8527;49.740;6.604;2023-05-01T01:02:07;99706.53;;;10.79;81.05
16821;BME280;8527;49.740;6.604;2023-05-01T01:07:18;99702.41;;;10.68;81.62
16821;BME280;8527;49.740;6.604;2023-05-01T01:12:26;99698.63;;;10.62;82.31
16821;BME280;8527;49.740;6.604;2023-05-01T01:17:31;99693.81;;;10.58;81.43
16821;BME280;8527;49.740;6.604;2023-05-01T01:22:35;99694.47;;;10.68;81.52
16821;BME280;8527;49.740;6.604;2023-05-01T01:38:36;99685.34;;;10.62;82.78
16821;BME280;8527;49.740;6.604;2023-05-01T01:43:39;99689.03;;;10.36;84.43
16821;BME280;8527;49.740;6.604;2023-05-01T01:48:41;99687.38;;;10.35;84.79
16821;BME280;8527;49.740;6.604;2023-05-01T01:53:48;99680.97;;;10.13;85.72
16821;BME280;8527;49.740;6.604;2023-05-01T01:58:49;99681.13;;;10.20;86.19
16821;BME280;8527;49.740;6.604;2023-05-01T02:03:54;99668.81;;;10.52;84.65
16821;BME280;8527;49.740;6.604;2023-05-01T02:08:56;99664.34;;;10.52;85.17
16821;BME280;8527;49.740;6.604;2023-05-01T02:13:59;99667.47;;;10.39;85.96
16821;BME280;8527;49.740;6.604;2023-05-01T02:18:59;99668.81;;;10.52;85.99
16821;BME280;8527;49.740;6.604;2023-05-01T02:24:04;99657.38;;;10.35;86.91
16821;BME280;8527;49.740;6.604;2023-05-01T02:29:03;99659.41;;;10.41;86.49
16821;BME280;8527;49.740;6.604;2023-05-01T02:34:02;99653.72;;;10.36;87.28
16821;BME280;8527;49.740;6.604;2023-05-01T02:39:03;99654.56;;;10.36;87.14
16821;BME280;8527;49.740;6.604;2023-05-01T02:44:07;99643.19;;;10.03;88.95
16821;BME280;8527;49.740;6.604;2023-05-01T02:49:07;99634.41;;;10.10;88.72
16821;BME280;8527;49.740;6.604;2023-05-01T02:54:09;99629.25;;;10.09;88.69
16821;BME280;8527;49.740;6.604;2023-05-01T02:59:14;99616.00;;;10.25;87.85
16821;BME280;8527;49.740;6.604;2023-05-01T03:04:12;99619.94;;;10.38;86.98
16821;BME280;8527;49.740;6.604;2023-05-01T03:09:13;99619.25;;;10.52;86.19
16821;BME280;8527;49.740;6.604;2023-05-01T03:14:15;99612.28;;;10.51;85.83
16821;BME280;8527;49.740;6.604;2023-05-01T03:19:13;99615.94;;;10.50;86.29
16821;BME280;8527;49.740;6.604;2023-05-01T03:24:14;99608.94;;;10.58;86.11
16821;BME280;8527;49.740;6.604;2023-05-01T03:29:12;99596.94;;;10.70;85.65
16821;BME280;8527;49.740;6.604;2023-05-01T03:34:11;99593.94;;;10.73;85.07
16821;BME280;8527;49.740;6.604;2023-05-01T03:39:10;99596.94;;;10.70;85.60
16821;BME280;8527;49.740;6.604;2023-05-01T03:44:11;99590.28;;;10.74;85.31
16821;BME280;8527;49.740;6.604;2023-05-01T03:49:09;99581.63;;;10.80;85.66
16821;BME280;8527;49.740;6.604;2023-05-01T03:54:11;99586.47;;;10.77;85.54
16821;BME280;8527;49.740;6.604;2023-05-01T03:59:12;99580.28;;;10.84;86.02
16821;BME280;8527;49.740;6.604;2023-05-01T04:04:11;99591.41;;;10.80;85.50
16821;BME280;8527;49.740;6.604;2023-05-01T04:09:09;99588.13;;;10.78;85.64
16821;BME280;8527;49.740;6.604;2023-05-01T04:14:08;99583.53;;;10.72;86.15
16821;BME280;8527;49.740;6.604;2023-05-01T04:19:09;99588.75;;;10.80;86.07
16821;BME280;8527;49.740;6.604;2023-05-01T04:24:09;99583.06;;;10.91;84.93
16821;BME280;8527;49.740;6.604;2023-05-01T04:29:11;99590.56;;;10.88;85.25
16821;BME280;8527;49.740;6.604;2023-05-01T04:34:12;99594.16;;;10.95;85.36
16821;BME280;8527;49.740;6.604;2023-05-01T04:39:13;99599.72;;;10.77;85.75
16821;BME280;8527;49.740;6.604;2023-05-01T04:44:14;99599.19;;;10.90;85.03
16821;BME280;8527;49.740;6.604;2023-05-01T04:49:15;99599.22;;;10.81;85.89
16821;BME280;8527;49.740;6.604;2023-05-01T04:54:14;99594.13;;;10.72;86.31
16821;BME280;8527;49.740;6.604;2023-05-01T04:59:12;99592.88;;;10.51;87.69
16821;BME280;8527;49.740;6.604;2023-05-01T05:04:11;99603.72;;;10.81;85.97
16821;BME280;8527;49.740;6.604;2023-05-01T05:09:15;99601.00;;;10.89;84.65
16821;BME280;8527;49.740;6.604;2023-05-01T05:14:13;99600.72;;;10.76;85.47
16821;BME280;8527;49.740;6.604;2023-05-01T05:19:12;99599.59;;;10.70;85.31
16821;BME280;8527;49.740;6.604;2023-05-01T05:24:10;99600.91;;;10.74;85.23
16821;BME280;8527;49.740;6.604;2023-05-01T05:29:14;99609.59;;;10.60;85.40
16821;BME280;8527;49.740;6.604;2023-05-01T05:34:15;99610.22;;;10.70;84.65
16821;BME280;8527;49.740;6.604;2023-05-01T05:39:14;99610.06;;;10.72;84.65
16821;BME280;8527;49.740;6.604;2023-05-01T05:44:18;99605.53;;;10.80;84.18
16821;BME280;8527;49.740;6.604;2023-05-01T05:49:16;99600.97;;;10.97;83.53
16821;BME280;8527;49.740;6.604;2023-05-01T05:54:15;99601.13;;;10.96;82.71
16821;BME280;8527;49.740;6.604;2023-05-01T05:59:21;99608.59;;;10.92;82.77
16821;BME280;8527;49.740;6.604;2023-05-01T06:04:20;99597.06;;;11.08;82.12
16821;BME280;8527;49.740;6.604;2023-05-01T06:09:21;99600.13;;;10.97;81.11
16821;BME280;8527;49.740;6.604;2023-05-01T06:14:28;99589.63;;;11.04;80.99
16821;BME280;8527;49.740;6.604;2023-05-01T06:19:26;99592.34;;;11.19;80.03
16821;BME280;8527;49.740;6.604;2023-05-01T06:24:24;99590.81;;;11.24;79.04
16821;BME280;8527;49.740;6.604;2023-05-01T06:29:26;99582.66;;;11.49;78.42
16821;BME280;8527;49.740;6.604;2023-05-01T06:34:24;99590.16;;;11.84;77.11
16821;BME280;8527;49.740;6.604;2023-05-01T06:39:22;99588.41;;;12.15;76.05
16821;BME280;8527;49.740;6.604;2023-05-01T06:44:21;99588.66;;;12.35;75.66
16821;BME280;8527;49.740;6.604;2023-05-01T06:49:25;99592.63;;;12.09;75.79
16821;BME280;8527;49.740;6.604;2023-05-01T06:54:24;99593.44;;;12.09;75.30
16821;BME280;8527;49.740;6.604;2023-05-01T06:59:25;99596.28;;;12.08;75.28
16821;BME280;8527;49.740;6.604;2023-05-01T07:04:25;99590.59;;;12.41;75.22
16821;BME280;8527;49.740;6.604;2023-05-01T07:09:24;99595.56;;;12.59;73.84
16821;BME280;8527;49.740;6.604;2023-05-01T07:14:22;99598.94;;;12.68;73.20
16821;BME280;8527;49.740;6.604;2023-05-01T07:19:20;99594.25;;;12.70;73.31
16821;BME280;8527;49.740;6.604;2023-05-01T07:24:21;99598.28;;;13.03;73.24
16821;BME280;8527;49.740;6.604;2023-05-01T07:29:20;99600.38;;;13.07;71.93
16821;BME280;8527;49.740;6.604;2023-05-01T07:34:21;99598.56;;;13.30;71.21
16821;BME280;8527;49.740;6.604;2023-05-01T07:39:25;99595.69;;;13.46;70.34
16821;BME280;8527;49.740;6.604;2023-05-01T07:44:26;99589.06;;;13.64;69.48
16821;BME280;8527;49.740;6.604;2023-05-01T07:49:27;99591.56;;;14.01;71.17
16821;BME280;8527;49.740;6.604;2023-05-01T07:54:28;99591.91;;;14.19;70.23
16821;BME280;8527;49.740;6.604;2023-05-01T07:59:26;99584.75;;;14.27;70.03
16821;BME280;8527;49.740;6.604;2023-05-01T08:04:26;99590.25;;;14.54;69.40
16821;BME280;8527;49.740;6.604;2023-05-01T08:09:33;99587.75;;;14.52;67.68
16821;BME280;8527;49.740;6.604;2023-05-01T08:14:32;99590.16;;;14.82;68.23
16821;BME280;8527;49.740;6.604;2023-05-01T08:19:30;99594.16;;;15.20;67.57
16821;BME280;8527;49.740;6.604;2023-05-01T08:24:34;99585.53;;;15.18;66.35
16821;BME280;8527;49.740;6.604;2023-05-01T08:29:32;99584.31;;;15.47;66.53
16821;BME280;8527;49.740;6.604;2023-05-01T08:34:31;99575.28;;;15.75;66.74
16821;BME280;8527;49.740;6.604;2023-05-01T08:39:36;99575.88;;;15.98;65.16
16821;BME280;8527;49.740;6.604;2023-05-01T08:44:37;99565.00;;;15.93;64.81
16821;BME280;8527;49.740;6.604;2023-05-01T08:49:36;99573.56;;;16.22;65.46
16821;BME280;8527;49.740;6.604;2023-05-01T08:54:41;99572.41;;;16.63;64.40
16821;BME280;8527;49.740;6.604;2023-05-01T08:59:40;99574.50;;;17.00;64.10
16821;BME280;8527;49.740;6.604;2023-05-01T09:04:39;99582.19;;;17.54;61.34
16821;BME280;8527;49.740;6.604;2023-05-01T09:09:41;99576.91;;;17.91;60.84
16821;BME280;8527;49.740;6.604;2023-05-01T09:14:40;99580.63;;;18.34;60.74
16821;BME280;8527;49.740;6.604;2023-05-01T09:19:41;99567.00;;;18.66;58.20
16821;BME280;8527;49.740;6.604;2023-05-01T09:24:43;99568.06;;;18.96;56.58
16821;BME280;8527;49.740;6.604;2023-05-01T09:29:46;99561.84;;;19.26;55.29
16821;BME280;8527;49.740;6.604;2023-05-01T09:34:45;99565.75;;;19.00;54.81
16821;BME280;8527;49.740;6.604;2023-05-01T09:39:47;99562.25;;;19.53;53.77
16821;BME280;8527;49.740;6.604;2023-05-01T09:44:46;99559.91;;;19.57;54.47
16821;BME280;8527;49.740;6.604;2023-05-01T09:49:45;99569.72;;;19.63;52.61
16821;BME280;8527;49.740;6.604;2023-05-01T09:54:47;99567.53;;;19.84;53.71
16821;BME280;8527;49.740;6.604;2023-05-01T10:00:00;99555.19;;;20.36;51.68
16821;BME280;8527;49.740;6.604;2023-05-01T10:05:03;99553.19;;;20.31;51.82
16821;BME280;8527;49.740;6.604;2023-05-01T10:10:20;99552.34;;;20.84;49.70
16821;BME280;8527;49.740;6.604;2023-05-01T10:15:18;99558.78;;;21.29;48.63
16821;BME280;8527;49.740;6.604;2023-05-01T10:20:17;99553.16;;;21.30;48.16
16821;BME280;8527;49.740;6.604;2023-05-01T10:25:19;99551.66;;;21.91;49.35
16821;BME280;8527;49.740;6.604;2023-05-01T10:30:20;99543.00;;;22.11;47.67
16821;BME280;8527;49.740;6.604;2023-05-01T10:35:25;99536.06;;;21.98;46.96
16821;BME280;8527;49.740;6.604;2023-05-01T10:40:46;99541.09;;;21.89;46.66
16821;BME280;8527;49.740;6.604;2023-05-01T10:45:48;99531.47;;;22.88;45.35
16821;BME280;8527;49.740;6.604;2023-05-01T10:51:08;99526.19;;;23.36;45.27
16821;BME280;8527;49.740;6.604;2023-05-01T10:56:42;99529.28;;;23.17;42.69
16821;BME280;8527;49.740;6.604;2023-05-01T11:01:41;99521.75;;;22.92;43.73
16821;BME280;8527;49.740;6.604;2023-05-01T11:07:14;99518.03;;;22.71;43.67
16821;BME280;8527;49.740;6.604;2023-05-01T11:17:56;99518.00;;;22.66;44.36
16821;BME280;8527;49.740;6.604;2023-05-01T11:22:55;99524.66;;;22.35;43.02
16821;BME280;8527;49.740;6.604;2023-05-01T11:27:58;99517.81;;;22.05;43.33
16821;BME280;8527;49.740;6.604;2023-05-01T11:32:57;99513.47;;;22.04;44.96
16821;BME280;8527;49.740;6.604;2023-05-01T11:37:55;99515.22;;;21.37;46.12
16821;BME280;8527;49.740;6.604;2023-05-01T11:43:02;99521.09;;;21.34;46.04
16821;BME280;8527;49.740;6.604;2023-05-01T11:48:01;99519.13;;;21.46;45.12
16821;BME280;8527;49.740;6.604;2023-05-01T11:53:01;99511.69;;;21.36;46.25
16821;BME280;8527;49.740;6.604;2023-05-01T11:58:02;99509.94;;;21.64;43.84
16821;BME280;8527;49.740;6.604;2023-05-01T12:03:02;99497.38;;;21.92;44.22
16821;BME280;8527;49.740;6.604;2023-05-01T12:08:14;99502.91;;;23.35;43.06
16821;BME280;8527;49.740;6.604;2023-05-01T12:13:19;99495.97;;;23.17;41.77
16821;BME280;8527;49.740;6.604;2023-05-01T12:18:18;99488.72;;;23.23;42.26
16821;BME280;8527;49.740;6.604;2023-05-01T12:23:30;99488.25;;;21.20;42.62
16821;BME280;8527;49.740;6.604;2023-05-01T12:28:31;99496.63;;;21.58;44.06
16821;BME280;8527;49.740;6.604;2023-05-01T12:33:29;99486.78;;;22.08;42.24
16821;BME280;8527;49.740;6.604;2023-05-01T12:38:30;99494.94;;;21.91;41.47
16821;BME280;8527;49.740;6.604;2023-05-01T12:43:35;99489.78;;;22.12;43.11
16821;BME280;8527;49.740;6.604;2023-05-01T12:48:37;99495.88;;;22.24;44.08
16821;BME280;8527;49.740;6.604;2023-05-01T12:53:42;99480.22;;;22.04;45.28
16821;BME280;8527;49.740;6.604;2023-05-01T12:58:44;99506.78;;;21.50;46.55
16821;BME280;8527;49.740;6.604;2023-05-01T13:03:43;99499.88;;;21.60;47.79
16821;BME280;8527;49.740;6.604;2023-05-01T13:08:42;99511.19;;;21.22;48.71
16821;BME280;8527;49.740;6.604;2023-05-01T13:13:45;99512.75;;;21.01;48.80
16821;BME280;8527;49.740;6.604;2023-05-01T13:18:45;99507.00;;;20.98;48.99
16821;BME280;8527;49.740;6.604;2023-05-01T13:23:51;99506.97;;;21.27;48.06
16821;BME280;8527;49.740;6.604;2023-05-01T13:28:53;99514.13;;;21.72;47.32
16821;BME280;8527;49.740;6.604;2023-05-01T13:33:57;99509.50;;;21.33;47.49
16821;BME280;8527;49.740;6.604;2023-05-01T13:38:56;99512.44;;;21.66;48.47
16821;BME280;8527;49.740;6.604;2023-05-01T13:43:57;99506.84;;;21.56;47.27
16821;BME280;8527;49.740;6.604;2023-05-01T13:49:02;99514.53;;;21.64;47.95
16821;BME280;8527;49.740;6.604;2023-05-01T13:54:05;99515.78;;;21.56;48.57
16821;BME280;8527;49.740;6.604;2023-05-01T13:59:07;99520.09;;;21.57;46.12
16821;BME280;8527;49.740;6.604;2023-05-01T14:04:09;99512.59;;;21.08;46.72
16821;BME280;8527;49.740;6.604;2023-05-01T14:09:10;99516.03;;;21.20;45.34
16821;BME280;8527;49.740;6.604;2023-05-01T14:14:16;99527.03;;;20.85;46.64
16821;BME280;8527;49.740;6.604;2023-05-01T14:19:15;99528.88;;;21.13;46.06
16821;BME280;8527;49.740;6.604;2023-05-01T14:24:15;99531.88;;;21.17;47.41
16821;BME280;8527;49.740;6.604;2023-05-01T14:29:21;99539.25;;;21.39;47.19
16821;BME280;8527;49.740;6.604;2023-05-01T14:34:21;99541.19;;;21.09;45.63
16821;BME280;8527;49.740;6.604;2023-05-01T14:39:20;99549.34;;;20.97;47.29
16821;BME280;8527;49.740;6.604;2023-05-01T14:44:25;99561.28;;;20.72;47.78
16821;BME280;8527;49.740;6.604;2023-05-01T14:49:24;99557.16;;;20.41;49.40
16821;BME280;8527;49.740;6.604;2023-05-01T14:54:25;99557.78;;;20.19;49.86
16821;BME280;8527;49.740;6.604;2023-05-01T14:59:26;99570.44;;;19.71;51.43
16821;BME280;8527;49.740;6.604;2023-05-01T15:04:27;99572.91;;;19.72;52.32
16821;BME280;8527;49.740;6.604;2023-05-01T15:09:25;99573.63;;;19.67;51.44
16821;BME280;8527;49.740;6.604;2023-05-01T15:14:26;99571.22;;;19.23;52.65
16821;BME280;8527;49.740;6.604;2023-05-01T15:19:25;99577.28;;;19.31;52.24
16821;BME280;8527;49.740;6.604;2023-05-01T15:24:26;99571.00;;;19.37;50.19
16821;BME280;8527;49.740;6.604;2023-05-01T15:29:28;99575.59;;;19.48;50.94
16821;BME280;8527;49.740;6.604;2023-05-01T15:34:26;99575.75;;;19.11;51.27
16821;BME280;8527;49.740;6.604;2023-05-01T15:39:27;99583.34;;;18.95;52.25
16821;BME280;8527;49.740;6.604;2023-05-01T15:44:30;99579.50;;;18.91;52.28
16821;BME280;8527;49.740;6.604;2023-05-01T15:49:28;99584.66;;;18.74;53.05
16821;BME280;8527;49.740;6.604;2023-05-01T15:54:30;99587.59;;;18.73;54.38
16821;BME280;8527;49.740;6.604;2023-05-01T15:59:31;99595.69;;;18.35;55.63
16821;BME280;8527;49.740;6.604;2023-05-01T16:04:29;99594.88;;;18.16;54.40
16821;BME280;8527;49.740;6.604;2023-05-01T16:09:29;99599.56;;;18.21;55.25
16821;BME280;8527;49.740;6.604;2023-05-01T16:14:31;99604.63;;;18.10;54.71
16821;BME280;8527;49.740;6.604;2023-05-01T16:19:29;99615.00;;;18.00;54.39
16821;BME280;8527;49.740;6.604;2023-05-01T16:24:30;99619.91;;;17.84;54.49
16821;BME280;8527;49.740;6.604;2023-05-01T16:29:33;99623.34;;;17.66;54.99
16821;BME280;8527;49.740;6.604;2023-05-01T16:34:32;99633.53;;;17.83;55.59
16821;BME280;8527;49.740;6.604;2023-05-01T16:39:34;99634.94;;;17.60;56.34
16821;BME280;8527;49.740;6.604;2023-05-01T16:44:36;99645.13;;;17.51;57.27
16821;BME280;8527;49.740;6.604;2023-05-01T16:49:39;99659.81;;;17.99;56.71
16821;BME280;8527;49.740;6.604;2023-05-01T16:54:37;99662.13;;;17.70;56.80
16821;BME280;8527;49.740;6.604;2023-05-01T16:59:41;99660.91;;;17.66;57.19
16821;BME280;8527;49.740;6.604;2023-05-01T17:04:39;99660.53;;;17.63;57.02
16821;BME280;8527;49.740;6.604;2023-05-01T17:09:40;99657.41;;;17.66;57.44
16821;BME280;8527;49.740;6.604;2023-05-01T17:14:44;99663.66;;;17.60;59.07
16821;BME280;8527;49.740;6.604;2023-05-01T17:19:43;99669.56;;;17.68;57.50
16821;BME280;8527;49.740;6.604;2023-05-01T17:24:41;99665.03;;;17.37;59.25
16821;BME280;8527;49.740;6.604;2023-05-01T17:29:45;99676.13;;;16.02;63.22
16821;BME280;8527;49.740;6.604;2023-05-01T17:34:44;99680.25;;;15.91;64.12
16821;BME280;8527;49.740;6.604;2023-05-01T17:39:42;99678.56;;;16.30;63.59
16821;BME280;8527;49.740;6.604;2023-05-01T17:44:46;99689.41;;;16.76;62.41
16821;BME280;8527;49.740;6.604;2023-05-01T17:49:45;99687.28;;;16.92;61.66
16821;BME280;8527;49.740;6.604;2023-05-01T17:54:45;99687.84;;;17.07;61.42
16821;BME280;8527;49.740;6.604;2023-05-01T17:59:46;99696.78;;;16.87;62.27
16821;BME280;8527;49.740;6.604;2023-05-01T18:04:45;99699.78;;;16.39;62.44
16821;BME280;8527;49.740;6.604;2023-05-01T18:09:45;99704.09;;;16.47;62.45
16821;BME280;8527;49.740;6.604;2023-05-01T18:14:46;99715.84;;;16.32;62.36
16821;BME280;8527;49.740;6.604;2023-05-01T18:19:45;99724.69;;;16.33;61.97
16821;BME280;8527;49.740;6.604;2023-05-01T18:24:44;99723.41;;;15.74;63.33
16821;BME280;8527;49.740;6.604;2023-05-01T18:29:49;99733.97;;;16.03;62.71
16821;BME280;8527;49.740;6.604;2023-05-01T18:34:51;99723.81;;;15.71;62.51
16821;BME280;8527;49.740;6.604;2023-05-01T18:39:49;99735.09;;;15.60;63.12
16821;BME280;8527;49.740;6.604;2023-05-01T18:44:50;99731.28;;;15.21;64.21
16821;BME280;8527;49.740;6.604;2023-05-01T18:49:51;99750.81;;;15.21;64.63
16821;BME280;8527;49.740;6.604;2023-05-01T18:54:49;99753.00;;;15.04;65.23
16821;BME280;8527;49.740;6.604;2023-05-01T18:59:50;99763.97;;;14.81;66.76
16821;BME280;8527;49.740;6.604;2023-05-01T19:04:49;99763.56;;;14.84;66.56
16821;BME280;8527;49.740;6.604;2023-05-01T19:09:47;99780.75;;;14.74;67.75
16821;BME280;8527;49.740;6.604;2023-05-01T19:14:46;99789.22;;;14.56;68.34
16821;BME280;8527;49.740;6.604;2023-05-01T19:19:48;99786.06;;;14.46;68.77
16821;BME280;8527;49.740;6.604;2023-05-01T19:24:46;99794.97;;;14.53;68.61
16821;BME280;8527;49.740;6.604;2023-05-01T19:29:45;99793.25;;;14.45;67.21
16821;BME280;8527;49.740;6.604;2023-05-01T19:34:47;99802.22;;;14.38;68.30
16821;BME280;8527;49.740;6.604;2023-05-01T19:39:46;99804.34;;;14.20;69.75
16821;BME280;8527;49.740;6.604;2023-05-01T19:44:45;99802.47;;;14.21;70.04
16821;BME280;8527;49.740;6.604;2023-05-01T19:49:43;99809.94;;;14.04;71.19
16821;BME280;8527;49.740;6.604;2023-05-01T19:54:44;99810.22;;;13.94;70.34
16821;BME280;8527;49.740;6.604;2023-05-01T19:59:43;99828.13;;;13.78;70.05
16821;BME280;8527;49.740;6.604;2023-05-01T20:04:42;99818.28;;;13.79;69.84
16821;BME280;8527;49.740;6.604;2023-05-01T20:09:40;99819.13;;;13.64;71.28
16821;BME280;8527;49.740;6.604;2023-05-01T20:14:50;99834.16;;;13.50;70.73
16821;BME280;8527;49.740;6.604;2023-05-01T20:19:49;99839.66;;;13.34;73.24
16821;BME280;8527;49.740;6.604;2023-05-01T20:24:50;99843.97;;;13.20;72.12
16821;BME280;8527;49.740;6.604;2023-05-01T20:29:53;99857.63;;;13.02;73.37
16821;BME280;8527;49.740;6.604;2023-05-01T20:34:52;99870.06;;;12.71;75.76
16821;BME280;8527;49.740;6.604;2023-05-01T20:39:51;99880.06;;;12.69;74.67
16821;BME280;8527;49.740;6.604;2023-05-01T20:44:52;99879.41;;;12.67;74.43
16821;BME280;8527;49.740;6.604;2023-05-01T20:49:51;99892.91;;;12.65;74.80
16821;BME280;8527;49.740;6.604;2023-05-01T20:54:53;99890.47;;;12.56;75.14
16821;BME280;8527;49.740;6.604;2023-05-01T20:59:54;99893.84;;;12.49;74.67
16821;BME280;8527;49.740;6.604;2023-05-01T21:04:53;99898.88;;;12.21;76.20
16821;BME280;8527;49.740;6.604;2023-05-01T21:09:51;99902.19;;;12.23;76.48
16821;BME280;8527;49.740;6.604;2023-05-01T21:14:50;99910.44;;;12.28;77.51
16821;BME280;8527;49.740;6.604;2023-05-01T21:19:51;99915.84;;;12.20;77.80
16821;BME280;8527;49.740;6.604;2023-05-01T21:24:56;99919.59;;;12.26;76.60
16821;BME280;8527;49.740;6.604;2023-05-01T21:29:57;99928.06;;;12.29;76.86
16821;BME280;8527;49.740;6.604;2023-05-01T21:34:58;99937.38;;;12.02;78.08
16821;BME280;8527;49.740;6.604;2023-05-01T21:40:01;99935.78;;;11.76;81.27
16821;BME280;8527;49.740;6.604;2023-05-01T21:45:05;99940.53;;;11.89;76.91
16821;BME280;8527;49.740;6.604;2023-05-01T21:50:09;99944.06;;;11.81;77.79
16821;BME280;8527;49.740;6.604;2023-05-01T21:55:10;99941.69;;;11.86;78.90
16821;BME280;8527;49.740;6.604;2023-05-01T22:00:09;99944.56;;;11.85;78.64
16821;BME280;8527;49.740;6.604;2023-05-01T22:05:12;99957.06;;;11.59;79.29
16821;BME280;8527;49.740;6.604;2023-05-01T22:10:12;99960.28;;;11.30;81.54
16821;BME280;8527;49.740;6.604;2023-05-01T22:15:12;99946.66;;;11.41;80.05
16821;BME280;8527;49.740;6.604;2023-05-01T22:20:16;99954.97;;;11.30;79.89
16821;BME280;8527;49.740;6.604;2023-05-01T22:25:14;99963.47;;;11.17;80.65
16821;BME280;8527;49.740;6.604;2023-05-01T22:30:15;99967.47;;;11.13;81.44
16821;BME280;8527;49.740;6.604;2023-05-01T22:35:16;99968.09;;;11.06;82.32
16821;BME280;8527;49.740;6.604;2023-05-01T22:40:15;99980.72;;;10.96;82.81
16821;BME280;8527;49.740;6.604;2023-05-01T22:45:13;99974.06;;;10.83;82.82
16821;BME280;8527;49.740;6.604;2023-05-01T22:50:11;99981.38;;;10.90;82.48
16821;BME280;8527;49.740;6.604;2023-05-01T22:55:12;99981.19;;;10.75;83.55
16821;BME280;8527;49.740;6.604;2023-05-01T23:00:12;99986.66;;;10.65;84.17
16821;BME280;8527;49.740;6.604;2023-05-01T23:05:11;99981.84;;;10.60;84.02
16821;BME280;8527;49.740;6.604;2023-05-01T23:10:13;99992.09;;;10.55;84.66
16821;BME280;8527;49.740;6.604;2023-05-01T23:15:13;100000.56;;;10.50;85.00
16821;BME280;8527;49.740;6.604;2023-05-01T23:20:19;99998.91;;;10.58;84.83
16821;BME280;8527;49.740;6.604;2023-05-01T23:25:22;100004.50;;;10.46;86.37
16821;BME280;8527;49.740;6.604;2023-05-01T23:30:29;100001.38;;;10.51;86.43
16821;BME280;8527;49.740;6.604;2023-05-01T23:35:31;100005.91;;;10.24;86.81
16821;BME280;8527;49.740;6.604;2023-05-01T23:40:32;100005.88;;;10.16;86.76
16821;BME280;8527;49.740;6.604;2023-05-01T23:45:32;100001.03;;;10.11;87.75
16821;BME280;8527;49.740;6.604;2023-05-01T23:50:30;100008.31;;;10.09;89.74
16821;BME280;8527;49.740;6.604;2023-05-01T23:55:31;100011.63;;;10.03;87.99
